チューリッヒ の空港の天気 - METARとTAF

チューリヒ国際空港 ( LSZH / ZRH ) - スイス チューリッヒ
飛行場実況気象(Metar)
観測時間05/29 00:20 CEST (05/28 22:20 UTC)
風向・風速北 2m/s
視程10km以上
天気現象
なし
気温10℃
湿度71%
気圧1015hPa
METARLSZH 282220Z AUTO 36004KT 320V050 9999 NSC 10/05 Q1015 NOSIG
過去の天気等 Google飛行場航空写真 Wunderground天気予報

過去48時間のMETAR

飛行場予報(TAF)
発表時間: 5/28 22:25 CEST (5/28 20:25 UTC)
予報対象時間: 28日23時 CEST ~ 30日5時 CEST
風向・風速東 3m/s
視程10km以上
少しの雲 雲底高度 2290m
29日0時 CEST ~ 29日2時 CEST に徐々に
風向・風速北 2m/s
29日10時 CEST ~ 29日12時 CEST に徐々に
風向・風速北北東 3m/s
29日12時 CEST ~ 29日18時 CEST に 確率 40% で一時的に
風向・風速北北東 6m/s 瞬間風速 13m/s
天気現象しゅう雨
全天の4割程度の塔状積雲 雲底高度 1830m
29日19時 CEST ~ 29日21時 CEST に徐々に
視程10km以上
なし
29日23時 CEST ~ 30日2時 CEST に徐々に
風向・風速不定 1m/s
TAF LSZH 282025Z 2821/3003 08005KT 9999 FEW075 TX16/2915Z TN07/2904Z
BECMG 2822/2824 35003KT
BECMG 2908/2910 03006KT
PROB40 TEMPO 2910/2916 02012G26KT SHRA SCT060TCU
BECMG 2917/2919 CAVOK
BECMG 2921/2924 VRB02KT